createdAt,value
2022-11-10T00:00:30.094Z,5.60
2022-11-10T00:03:23.645Z,5.63
2022-11-10T00:06:17.970Z,5.67
2022-11-10T00:09:12.715Z,5.68
2022-11-10T00:12:10.272Z,5.72
2022-11-10T00:15:20.148Z,5.75
2022-11-10T00:18:17.050Z,5.75
2022-11-10T00:21:14.548Z,5.75
2022-11-10T00:24:08.276Z,5.72
2022-11-10T00:27:02.935Z,5.72
2022-11-10T00:29:56.058Z,5.73
2022-11-10T00:32:52.652Z,5.72
2022-11-10T00:35:49.426Z,5.68
2022-11-10T00:38:40.706Z,5.68
2022-11-10T00:41:34.581Z,5.64
2022-11-10T00:44:32.450Z,5.68
2022-11-10T00:47:26.647Z,5.69
2022-11-10T00:50:21.252Z,5.73
2022-11-10T00:53:15.023Z,5.75
2022-11-10T00:56:06.823Z,5.75
2022-11-10T00:59:01.473Z,5.69
2022-11-10T01:01:58.203Z,5.70
2022-11-10T01:04:51.037Z,5.68
2022-11-10T01:07:45.295Z,5.66
2022-11-10T01:10:40.188Z,5.64
2022-11-10T01:13:35.162Z,5.64
2022-11-10T01:16:29.427Z,5.65
2022-11-10T01:19:30.658Z,5.63
2022-11-10T01:22:27.611Z,5.63
2022-11-10T01:25:21.279Z,5.64
2022-11-10T01:28:29.518Z,5.63
2022-11-10T01:31:29.579Z,5.63
2022-11-10T01:34:22.724Z,5.64
2022-11-10T01:37:16.376Z,5.65
2022-11-10T01:40:14.180Z,5.66
2022-11-10T01:43:15.883Z,5.68
2022-11-10T01:46:11.381Z,5.68
2022-11-10T01:49:06.047Z,5.69
2022-11-10T01:52:06.782Z,5.68
2022-11-10T01:55:01.077Z,5.68
2022-11-10T01:58:10.986Z,5.69
2022-11-10T02:01:06.223Z,5.66
2022-11-10T02:04:02.068Z,5.67
2022-11-10T02:06:57.221Z,5.67
2022-11-10T02:09:50.778Z,5.68
2022-11-10T02:12:43.832Z,5.69
2022-11-10T02:15:35.591Z,5.68
2022-11-10T02:18:28.926Z,5.63
2022-11-10T02:21:23.466Z,5.66
2022-11-10T02:24:17.916Z,5.66
2022-11-10T02:27:14.195Z,5.67
2022-11-10T02:30:10.137Z,5.65
2022-11-10T02:33:04.669Z,5.64
2022-11-10T02:35:58.461Z,5.61
2022-11-10T02:38:51.892Z,5.58
2022-11-10T02:41:44.474Z,5.58
2022-11-10T02:44:38.488Z,5.56
2022-11-10T02:47:34.543Z,5.55
2022-11-10T02:50:28.716Z,5.57
2022-11-10T02:53:22.015Z,5.55
2022-11-10T02:56:17.166Z,5.55
2022-11-10T02:59:10.200Z,5.52
2022-11-10T03:02:03.965Z,5.54
2022-11-10T03:04:57.684Z,5.54
2022-11-10T03:07:57.645Z,5.51
2022-11-10T03:10:50.086Z,5.49
2022-11-10T03:14:00.442Z,5.47
2022-11-10T03:16:54.968Z,5.47
2022-11-10T03:20:01.378Z,5.48
2022-11-10T03:22:56.493Z,5.46
2022-11-10T03:25:50.426Z,5.49
2022-11-10T03:28:56.985Z,5.56
2022-11-10T03:31:51.234Z,5.63
2022-11-10T03:34:47.156Z,5.71
2022-11-10T03:37:43.066Z,5.76
2022-11-10T03:40:50.752Z,5.81
2022-11-10T03:43:50.909Z,5.89
2022-11-10T03:46:51.566Z,5.94
2022-11-10T03:49:44.254Z,6.01
2022-11-10T03:52:37.536Z,6.08
2022-11-10T03:55:31.872Z,6.17
2022-11-10T03:58:26.016Z,6.28
2022-11-10T04:01:18.372Z,6.36
2022-11-10T04:04:32.386Z,6.42
2022-11-10T04:07:42.904Z,6.47
2022-11-10T04:10:39.786Z,6.52
2022-11-10T04:14:01.638Z,6.59
2022-11-10T04:16:57.385Z,6.69
2022-11-10T04:19:50.203Z,6.77
2022-11-10T04:23:01.165Z,6.84
2022-11-10T04:26:08.684Z,6.90
2022-11-10T04:29:04.719Z,6.98
2022-11-10T04:31:58.315Z,7.03
2022-11-10T04:34:51.718Z,7.08
2022-11-10T04:37:46.721Z,7.12
2022-11-10T04:40:40.158Z,7.16
2022-11-10T04:46:55.264Z,7.22
2022-11-10T04:49:49.966Z,7.26
2022-11-10T04:52:44.417Z,7.27
2022-11-10T04:55:41.233Z,7.29
2022-11-10T04:58:36.116Z,7.30
2022-11-10T05:01:34.577Z,7.32
2022-11-10T05:04:28.034Z,7.32
2022-11-10T05:07:20.985Z,7.33
2022-11-10T05:10:14.787Z,7.32
2022-11-10T05:13:09.002Z,7.30
2022-11-10T05:16:07.546Z,7.30
2022-11-10T05:19:01.538Z,7.31
2022-11-10T05:21:56.309Z,7.32
2022-11-10T05:24:51.877Z,7.29
2022-11-10T05:27:44.853Z,7.34
2022-11-10T05:30:39.380Z,7.35
2022-11-10T05:33:32.600Z,7.37
2022-11-10T05:36:28.840Z,7.38
2022-11-10T05:39:21.771Z,7.42
2022-11-10T05:42:15.472Z,7.45
2022-11-10T05:45:12.803Z,7.45
2022-11-10T05:48:07.449Z,7.49
2022-11-10T05:51:01.132Z,7.50
2022-11-10T05:53:53.957Z,7.54
2022-11-10T05:56:49.636Z,7.56
2022-11-10T05:59:42.156Z,7.58
2022-11-10T06:02:36.851Z,7.60
2022-11-10T06:05:31.488Z,7.62
2022-11-10T06:08:24.298Z,7.64
2022-11-10T06:11:21.118Z,7.65
2022-11-10T06:14:14.350Z,7.68
2022-11-10T06:17:08.860Z,7.71
2022-11-10T06:20:02.107Z,7.71
2022-11-10T06:23:07.993Z,7.73
2022-11-10T06:26:03.926Z,7.76
2022-11-10T06:29:10.648Z,7.78
2022-11-10T06:32:04.083Z,7.79
2022-11-10T06:35:02.949Z,7.82
2022-11-10T06:38:07.833Z,7.85
2022-11-10T06:41:10.907Z,7.86
2022-11-10T06:44:17.487Z,7.88
2022-11-10T06:47:12.927Z,7.87
2022-11-10T06:50:16.427Z,7.88
2022-11-10T06:53:10.757Z,7.89
2022-11-10T06:56:03.950Z,7.91
2022-11-10T06:58:59.666Z,7.90
2022-11-10T07:02:21.375Z,7.93
2022-11-10T07:05:42.283Z,7.95
2022-11-10T07:08:55.978Z,7.97
2022-11-10T07:12:15.529Z,7.98
2022-11-10T07:15:10.856Z,8.00
2022-11-10T07:18:06.756Z,8.02
2022-11-10T07:21:01.512Z,8.02
2022-11-10T07:23:59.411Z,8.03
2022-11-10T07:26:54.510Z,8.06
2022-11-10T07:29:47.975Z,8.08
2022-11-10T07:32:43.712Z,8.09
2022-11-10T07:35:46.757Z,8.11
2022-11-10T07:38:39.677Z,8.14
2022-11-10T07:41:36.146Z,8.14
2022-11-10T07:44:32.076Z,8.16
2022-11-10T07:47:29.248Z,8.20
2022-11-10T07:50:26.179Z,8.20
2022-11-10T07:53:22.423Z,8.23
2022-11-10T07:56:20.622Z,8.23
2022-11-10T07:59:22.924Z,8.27
2022-11-10T08:02:17.999Z,8.31
2022-11-10T08:05:12.172Z,8.35
2022-11-10T08:08:06.851Z,8.38
2022-11-10T08:11:01.973Z,8.41
2022-11-10T08:14:04.922Z,8.45
2022-11-10T08:16:58.221Z,8.48
2022-11-10T08:19:51.471Z,8.50
2022-11-10T08:22:45.119Z,8.54
2022-11-10T08:25:41.768Z,8.56
2022-11-10T08:28:43.046Z,8.58
2022-11-10T08:31:55.595Z,8.63
2022-11-10T08:34:51.277Z,8.71
2022-11-10T08:37:46.143Z,8.73
2022-11-10T08:40:41.170Z,8.76
2022-11-10T08:43:39.816Z,8.78
2022-11-10T08:46:33.108Z,8.78
2022-11-10T08:49:27.519Z,8.81
2022-11-10T08:52:22.190Z,8.85
2022-11-10T08:55:21.850Z,8.90
2022-11-10T08:58:16.954Z,8.92
2022-11-10T09:01:14.406Z,8.94
2022-11-10T09:04:08.498Z,8.98
2022-11-10T09:07:01.800Z,9.03
2022-11-10T09:10:06.592Z,9.02
2022-11-10T09:13:03.576Z,9.11
2022-11-10T09:15:59.061Z,9.16
2022-11-10T09:18:52.380Z,9.23
2022-11-10T09:21:46.130Z,9.28
2022-11-10T09:24:41.308Z,9.31
2022-11-10T09:27:39.541Z,9.35
2022-11-10T09:30:35.172Z,9.35
2022-11-10T09:33:29.952Z,9.43
2022-11-10T09:36:25.606Z,9.48
2022-11-10T09:39:21.471Z,9.52
2022-11-10T09:42:30.628Z,9.54
2022-11-10T09:45:29.180Z,9.60
2022-11-10T09:48:27.191Z,9.66
2022-11-10T09:51:26.622Z,9.71
2022-11-10T09:54:33.623Z,9.75
2022-11-10T09:57:32.075Z,9.78
2022-11-10T10:00:26.909Z,9.82
2022-11-10T10:03:26.794Z,9.85
2022-11-10T10:06:23.091Z,9.80
2022-11-10T10:09:31.518Z,9.82
2022-11-10T10:12:38.372Z,9.86
2022-11-10T10:15:39.903Z,9.91
2022-11-10T10:18:42.182Z,9.95
2022-11-10T10:21:53.048Z,9.95
2022-11-10T10:24:46.871Z,9.92
2022-11-10T10:27:44.651Z,9.90
2022-11-10T10:30:37.909Z,9.94
2022-11-10T10:33:32.485Z,9.92
2022-11-10T10:36:30.185Z,9.92
2022-11-10T10:39:30.857Z,9.97
2022-11-10T10:42:33.864Z,9.94
2022-11-10T10:45:31.870Z,10.05
2022-11-10T10:48:32.146Z,10.13
2022-11-10T10:51:35.303Z,10.19
2022-11-10T10:54:32.288Z,10.28
2022-11-10T10:57:30.301Z,10.36
2022-11-10T11:00:26.904Z,10.35
2022-11-10T11:03:42.680Z,10.45
2022-11-10T11:06:38.254Z,10.53
2022-11-10T11:09:43.577Z,10.63
2022-11-10T11:12:38.077Z,10.72
2022-11-10T11:15:34.471Z,10.75
2022-11-10T11:18:30.092Z,10.89
2022-11-10T11:21:35.788Z,11.04
2022-11-10T11:24:36.807Z,11.14
2022-11-10T11:27:39.314Z,11.16
2022-11-10T11:30:41.432Z,11.18
2022-11-10T11:33:40.497Z,11.12
2022-11-10T11:36:46.217Z,11.15
2022-11-10T11:39:51.179Z,11.13
2022-11-10T11:42:49.647Z,11.16
2022-11-10T11:45:56.315Z,11.15
2022-11-10T11:49:07.036Z,11.24
2022-11-10T11:52:11.329Z,11.25
2022-11-10T11:55:18.556Z,11.32
2022-11-10T11:58:27.299Z,11.35
2022-11-10T12:01:38.044Z,11.33
2022-11-10T12:05:01.650Z,11.37
2022-11-10T12:08:04.559Z,11.37
2022-11-10T12:11:06.159Z,11.44
2022-11-10T12:14:07.476Z,11.45
2022-11-10T12:17:13.601Z,11.42
2022-11-10T12:20:28.891Z,11.41
2022-11-10T12:23:35.562Z,11.38
2022-11-10T12:26:41.176Z,11.40
2022-11-10T12:30:04.349Z,11.42
2022-11-10T12:33:04.255Z,11.44
2022-11-10T12:36:00.475Z,11.45
2022-11-10T12:39:03.617Z,11.45
2022-11-10T12:42:07.107Z,11.50
2022-11-10T12:45:23.572Z,11.48
2022-11-10T12:48:21.666Z,11.48
2022-11-10T12:51:23.119Z,11.44
2022-11-10T12:54:20.885Z,11.46
2022-11-10T12:57:19.400Z,11.40
2022-11-10T13:00:30.860Z,11.36
2022-11-10T13:03:37.531Z,11.34
2022-11-10T13:06:33.534Z,11.35
2022-11-10T13:09:33.167Z,11.34
2022-11-10T13:12:28.562Z,11.32
2022-11-10T13:15:55.162Z,11.29
2022-11-10T13:19:07.733Z,11.29
2022-11-10T13:22:14.575Z,11.31
2022-11-10T13:25:41.537Z,11.32
2022-11-10T13:29:22.025Z,11.28
2022-11-10T13:32:31.288Z,11.28
2022-11-10T13:35:55.426Z,11.24
2022-11-10T13:38:49.593Z,11.18
2022-11-10T13:41:51.435Z,11.19
2022-11-10T13:44:58.962Z,11.23
2022-11-10T13:48:00.437Z,11.24
2022-11-10T13:51:12.848Z,11.26
2022-11-10T13:54:29.732Z,11.27
2022-11-10T13:57:38.143Z,11.24
2022-11-10T14:00:35.821Z,11.21
2022-11-10T14:04:01.281Z,11.16
2022-11-10T14:07:01.997Z,11.11
2022-11-10T14:09:58.759Z,11.17
2022-11-10T14:12:55.424Z,11.20
2022-11-10T14:15:49.736Z,11.19
2022-11-10T14:18:51.565Z,11.17
2022-11-10T14:21:56.895Z,11.18
2022-11-10T14:25:01.971Z,11.15
2022-11-10T14:27:58.214Z,11.14
2022-11-10T14:30:59.018Z,11.15
2022-11-10T14:34:01.162Z,11.10
2022-11-10T14:37:01.051Z,11.07
2022-11-10T14:39:57.540Z,11.08
2022-11-10T14:42:52.489Z,11.07
2022-11-10T14:45:55.546Z,11.05
2022-11-10T14:48:57.993Z,10.99
2022-11-10T14:51:52.479Z,10.93
2022-11-10T14:54:51.561Z,10.87
2022-11-10T14:57:49.051Z,10.80
2022-11-10T15:00:47.095Z,10.78
2022-11-10T15:03:42.785Z,10.76
2022-11-10T15:06:44.468Z,10.73
2022-11-10T15:09:38.383Z,10.70
2022-11-10T15:12:32.364Z,10.63
2022-11-10T15:15:42.022Z,10.64
2022-11-10T15:18:40.899Z,10.64
2022-11-10T15:21:37.063Z,10.70
2022-11-10T15:24:31.071Z,10.71
2022-11-10T15:27:31.270Z,10.66
2022-11-10T15:30:38.606Z,10.62
2022-11-10T15:33:34.329Z,10.61
2022-11-10T15:36:37.354Z,10.61
2022-11-10T15:39:38.747Z,10.58
2022-11-10T15:42:37.026Z,10.59
2022-11-10T15:45:41.214Z,10.59
2022-11-10T15:48:42.557Z,10.55
2022-11-10T15:51:37.325Z,10.53
2022-11-10T15:54:31.591Z,10.51
2022-11-10T15:57:25.263Z,10.43
2022-11-10T16:00:23.343Z,10.45
2022-11-10T16:03:18.915Z,10.44
2022-11-10T16:06:16.981Z,10.46
2022-11-10T16:09:14.703Z,10.44
2022-11-10T16:12:09.002Z,10.39
2022-11-10T16:15:03.426Z,10.35
2022-11-10T16:17:59.545Z,10.35
2022-11-10T16:20:53.037Z,10.29
2022-11-10T16:23:56.684Z,10.26
2022-11-10T16:27:01.042Z,10.19
2022-11-10T16:33:19.874Z,10.13
2022-11-10T16:36:29.602Z,10.04
2022-11-10T16:39:26.099Z,10.01
2022-11-10T16:42:19.220Z,10.01
2022-11-10T16:45:37.845Z,10.03
2022-11-10T16:48:35.885Z,9.99
2022-11-10T16:51:35.879Z,9.99
2022-11-10T16:54:30.029Z,9.94
2022-11-10T16:57:28.234Z,9.95
2022-11-10T17:00:23.535Z,9.93
2022-11-10T17:03:15.912Z,9.90
2022-11-10T17:06:15.634Z,9.85
2022-11-10T17:09:15.942Z,9.88
2022-11-10T17:12:18.786Z,9.79
2022-11-10T17:15:15.904Z,9.78
2022-11-10T17:18:13.830Z,9.74
2022-11-10T17:21:21.096Z,9.76
2022-11-10T17:24:24.560Z,9.73
2022-11-10T17:27:22.686Z,9.70
2022-11-10T17:30:26.665Z,9.69
2022-11-10T17:33:35.329Z,9.67
2022-11-10T17:36:46.269Z,9.67
2022-11-10T17:39:43.804Z,9.65
2022-11-10T17:42:40.026Z,9.65
2022-11-10T17:49:29.282Z,9.69
2022-11-10T17:52:23.621Z,9.64
2022-11-10T17:55:28.495Z,9.63
2022-11-10T17:58:25.938Z,9.59
2022-11-10T18:01:23.613Z,9.58
2022-11-10T18:04:17.887Z,9.56
2022-11-10T18:07:12.969Z,9.55
2022-11-10T18:10:12.952Z,9.52
2022-11-10T18:13:07.568Z,9.50
2022-11-10T18:16:06.212Z,9.47
2022-11-10T18:19:01.827Z,9.49
2022-11-10T18:21:58.523Z,9.45
2022-11-10T18:24:54.853Z,9.43
2022-11-10T18:27:49.773Z,9.42
2022-11-10T18:30:52.572Z,9.38
2022-11-10T18:33:47.254Z,9.34
2022-11-10T18:36:42.759Z,9.30
2022-11-10T18:39:45.948Z,9.26
2022-11-10T18:42:41.038Z,9.25
2022-11-10T18:45:51.879Z,9.23
2022-11-10T18:48:46.996Z,9.22
2022-11-10T18:51:41.492Z,9.21
2022-11-10T18:54:35.203Z,9.21
2022-11-10T18:57:30.222Z,9.22
2022-11-10T19:00:24.257Z,9.22
2022-11-10T19:03:24.848Z,9.27
2022-11-10T19:06:20.100Z,9.26
2022-11-10T19:09:16.238Z,9.28
2022-11-10T19:12:36.555Z,9.23
2022-11-10T19:15:59.925Z,9.18
2022-11-10T19:19:04.123Z,9.14
2022-11-10T19:22:25.514Z,9.11
2022-11-10T19:25:38.751Z,9.06
2022-11-10T19:28:37.661Z,9.06
2022-11-10T19:31:37.614Z,9.01
2022-11-10T19:34:38.077Z,8.97
2022-11-10T19:37:42.297Z,8.96
2022-11-10T19:40:40.195Z,8.95
2022-11-10T19:43:37.286Z,8.93
2022-11-10T19:46:37.404Z,8.88
2022-11-10T19:49:40.312Z,8.85
2022-11-10T19:52:38.549Z,8.77
2022-11-10T19:55:37.648Z,8.79
2022-11-10T19:58:36.555Z,8.75
2022-11-10T20:01:32.873Z,8.72
2022-11-10T20:04:26.490Z,8.70
2022-11-10T20:07:45.396Z,8.69
2022-11-10T20:10:39.153Z,8.62
2022-11-10T20:13:33.516Z,8.58
2022-11-10T20:16:27.888Z,8.54
2022-11-10T20:19:21.412Z,8.50
2022-11-10T20:22:25.447Z,8.51
2022-11-10T20:25:19.798Z,8.49
2022-11-10T20:28:15.911Z,8.48
2022-11-10T20:31:21.013Z,8.41
2022-11-10T20:34:13.972Z,8.36
2022-11-10T20:37:11.784Z,8.35
2022-11-10T20:40:30.341Z,8.29
2022-11-10T20:43:37.433Z,8.22
2022-11-10T20:46:53.400Z,8.18
2022-11-10T20:49:48.069Z,8.14
2022-11-10T20:52:41.668Z,8.11
2022-11-10T20:55:52.655Z,8.09
2022-11-10T20:58:48.524Z,8.05
2022-11-10T21:01:40.849Z,8.03
2022-11-10T21:04:32.690Z,8.01
2022-11-10T21:07:26.177Z,7.95
2022-11-10T21:10:20.259Z,7.98
2022-11-10T21:13:14.702Z,7.94
2022-11-10T21:16:33.397Z,7.93
2022-11-10T21:19:26.836Z,7.88
2022-11-10T21:22:19.722Z,7.88
2022-11-10T21:25:17.124Z,7.86
2022-11-10T21:28:15.190Z,7.85
2022-11-10T21:34:22.050Z,7.80
2022-11-10T21:37:17.961Z,7.78
2022-11-10T21:40:17.864Z,7.73
2022-11-10T21:43:21.730Z,7.70
2022-11-10T21:46:31.191Z,7.66
2022-11-10T21:49:24.734Z,7.63
2022-11-10T21:52:18.442Z,7.57
2022-11-10T21:55:13.858Z,7.55
2022-11-10T21:58:07.460Z,7.53
2022-11-10T22:01:08.289Z,7.52
2022-11-10T22:04:07.317Z,7.51
2022-11-10T22:07:18.860Z,7.49
2022-11-10T22:10:31.352Z,7.47
2022-11-10T22:13:40.833Z,7.41
2022-11-10T22:17:03.790Z,7.41
2022-11-10T22:19:57.529Z,7.38
2022-11-10T22:22:51.074Z,7.38
2022-11-10T22:25:43.723Z,7.37
2022-11-10T22:28:38.946Z,7.35
2022-11-10T22:31:43.726Z,7.35
2022-11-10T22:34:37.128Z,7.33
2022-11-10T22:37:33.553Z,7.33
2022-11-10T22:40:44.068Z,7.33
2022-11-10T22:44:03.137Z,7.30
2022-11-10T22:47:00.777Z,7.31
2022-11-10T22:49:54.204Z,7.30
2022-11-10T22:52:52.713Z,7.27
2022-11-10T22:55:46.560Z,7.28
2022-11-10T22:58:38.147Z,7.24
2022-11-10T23:01:34.089Z,7.16
2022-11-10T23:04:28.363Z,7.16
2022-11-10T23:07:21.395Z,7.13
2022-11-10T23:10:15.974Z,7.09
2022-11-10T23:13:10.686Z,7.00
2022-11-10T23:16:07.952Z,6.89
2022-11-10T23:19:03.065Z,6.72
2022-11-10T23:21:56.314Z,6.64
2022-11-10T23:24:52.902Z,6.59
2022-11-10T23:27:48.625Z,6.49
2022-11-10T23:30:43.114Z,6.40
2022-11-10T23:33:36.186Z,6.36
2022-11-10T23:36:30.589Z,6.32
2022-11-10T23:39:23.729Z,6.26
2022-11-10T23:42:16.426Z,6.20
2022-11-10T23:45:08.635Z,6.05
2022-11-10T23:48:03.029Z,5.96
2022-11-10T23:50:59.702Z,5.89
2022-11-10T23:53:50.737Z,5.84
2022-11-10T23:56:41.127Z,5.79
2022-11-10T23:59:32.223Z,5.76
